createdAt,value
2019-03-22T00:00:56.581Z,98716.52
2019-03-22T00:02:00.290Z,98718.38
2019-03-22T00:03:04.029Z,98720.27
2019-03-22T00:04:07.666Z,98717.62
2019-03-22T00:05:11.304Z,98717.08
2019-03-22T00:06:15.048Z,98718.69
2019-03-22T00:07:18.686Z,98719.73
2019-03-22T00:08:22.352Z,98717.59
2019-03-22T00:09:25.943Z,98715.99
2019-03-22T00:10:29.578Z,98715.20
2019-03-22T00:11:33.236Z,98718.39
2019-03-22T00:12:36.802Z,98721.34
2019-03-22T00:13:40.434Z,98727.73
2019-03-22T00:14:44.057Z,98717.87
2019-03-22T00:15:47.699Z,98717.87
2019-03-22T00:16:51.366Z,98719.73
2019-03-22T00:17:55.001Z,98719.74
2019-03-22T00:18:58.635Z,98718.42
2019-03-22T00:20:02.735Z,98712.26
2019-03-22T00:21:06.366Z,98714.42
2019-03-22T00:22:10.400Z,98716.52
2019-03-22T00:23:14.035Z,98720.28
2019-03-22T00:24:17.677Z,98722.94
2019-03-22T00:25:21.384Z,98724.55
2019-03-22T00:26:24.953Z,98722.13
2019-03-22T00:27:28.667Z,98721.09
2019-03-22T00:28:32.378Z,98723.48
2019-03-22T00:29:36.008Z,98721.34
2019-03-22T00:30:39.639Z,98718.67
2019-03-22T00:31:43.275Z,98719.19
2019-03-22T00:32:46.952Z,98711.75
2019-03-22T00:33:50.578Z,98720.56
2019-03-22T00:34:54.607Z,98720.02
2019-03-22T00:35:58.245Z,98712.53
2019-03-22T00:37:01.891Z,98714.96
2019-03-22T00:38:05.561Z,98715.19
2019-03-22T00:39:09.327Z,98711.98
2019-03-22T00:40:14.684Z,98716.28
2019-03-22T00:41:18.315Z,98713.87
2019-03-22T00:42:21.948Z,98710.14
2019-03-22T00:43:25.539Z,98711.75
2019-03-22T00:44:29.162Z,98717.09
2019-03-22T00:45:32.867Z,98719.50
2019-03-22T00:46:36.506Z,98713.08
2019-03-22T00:47:40.208Z,98713.06
2019-03-22T00:48:43.875Z,98710.41
2019-03-22T00:49:47.519Z,98710.69
2019-03-22T00:50:51.158Z,98715.75
2019-03-22T00:51:54.792Z,98714.42
2019-03-22T00:52:58.501Z,98710.95
2019-03-22T00:54:02.181Z,98710.16
2019-03-22T00:55:06.316Z,98715.47
2019-03-22T00:56:09.955Z,98713.58
2019-03-22T00:57:13.591Z,98710.91
2019-03-22T00:58:17.227Z,98719.45
2019-03-22T00:59:20.893Z,98715.99
2019-03-22T01:00:24.532Z,98717.86
2019-03-22T01:01:28.169Z,98712.55
2019-03-22T01:02:31.825Z,98712.27
2019-03-22T01:03:35.457Z,98710.41
2019-03-22T01:04:39.124Z,98718.70
2019-03-22T01:05:42.768Z,98717.63
2019-03-22T01:06:46.404Z,98717.88
2019-03-22T01:07:50.309Z,98723.70
2019-03-22T01:08:53.879Z,98717.27
2019-03-22T01:09:57.553Z,98716.98
2019-03-22T01:11:01.189Z,98719.35
2019-03-22T01:12:04.834Z,98712.70
2019-03-22T01:13:08.464Z,98719.67
2019-03-22T01:14:12.120Z,98712.48
2019-03-22T01:15:16.300Z,98716.22
2019-03-22T01:16:20.034Z,98717.84
2019-03-22T01:17:23.744Z,98721.56
2019-03-22T01:18:27.384Z,98711.17
2019-03-22T01:19:31.466Z,98718.66
2019-03-22T01:20:35.101Z,98713.01
2019-03-22T01:21:38.777Z,98715.89
2019-03-22T01:22:42.411Z,98722.52
2019-03-22T01:23:46.044Z,98718.52
2019-03-22T01:24:49.750Z,98718.78
2019-03-22T01:25:53.395Z,98722.80
2019-03-22T01:26:57.065Z,98719.62
2019-03-22T01:28:00.694Z,98721.52
2019-03-22T01:29:04.323Z,98722.85
2019-03-22T01:30:18.539Z,98721.55
2019-03-22T01:31:22.179Z,98719.94
2019-03-22T01:32:25.852Z,98715.39
2019-03-22T01:33:29.855Z,98718.02
2019-03-22T01:34:33.482Z,98715.61
2019-03-22T01:35:37.111Z,98718.30
2019-03-22T01:36:40.747Z,98716.98
2019-03-22T01:37:44.730Z,98716.70
2019-03-22T01:38:48.358Z,98712.45
2019-03-22T01:39:52.002Z,98710.61
2019-03-22T01:40:55.630Z,98717.02
2019-03-22T01:41:59.267Z,98715.41
2019-03-22T01:43:02.936Z,98715.13
2019-03-22T01:44:06.569Z,98718.05
2019-03-22T01:45:14.608Z,98713.48
2019-03-22T01:46:18.678Z,98715.33
2019-03-22T01:47:22.310Z,98709.94
2019-03-22T01:48:25.983Z,98712.00
2019-03-22T01:49:29.609Z,98716.58
2019-03-22T01:50:33.650Z,98715.28
2019-03-22T01:51:37.294Z,98716.66
2019-03-22T01:52:40.926Z,98708.41
2019-03-22T01:53:44.593Z,98711.09
2019-03-22T01:54:48.236Z,98711.38
2019-03-22T01:55:51.800Z,98712.69
2019-03-22T01:56:55.433Z,98711.88
2019-03-22T01:57:59.071Z,98711.01
2019-03-22T01:59:02.729Z,98710.97
2019-03-22T02:00:17.906Z,98708.30
2019-03-22T02:01:21.541Z,98712.02
2019-03-22T02:02:25.179Z,98709.61
2019-03-22T02:03:28.815Z,98710.19
2019-03-22T02:04:32.789Z,98714.20
2019-03-22T02:05:36.501Z,98709.42
2019-03-22T02:06:40.141Z,98703.86
2019-03-22T02:07:43.768Z,98708.94
2019-03-22T02:08:47.399Z,98707.55
2019-03-22T02:09:51.062Z,98708.30
2019-03-22T02:10:54.782Z,98712.00
2019-03-22T02:11:58.414Z,98711.98
2019-03-22T02:13:02.057Z,98715.47
2019-03-22T02:14:05.688Z,98715.74
2019-03-22T02:15:16.300Z,98717.67
2019-03-22T02:16:19.970Z,98712.09
2019-03-22T02:17:24.004Z,98711.59
2019-03-22T02:18:27.642Z,98715.88
2019-03-22T02:19:31.281Z,98718.52
2019-03-22T02:20:34.866Z,98720.04
2019-03-22T02:21:38.502Z,98716.27
2019-03-22T02:22:42.141Z,98719.70
2019-03-22T02:23:45.704Z,98717.23
2019-03-22T02:24:49.335Z,98715.87
2019-03-22T02:25:53.005Z,98719.12
2019-03-22T02:26:56.645Z,98718.89
2019-03-22T02:28:04.471Z,98723.19
2019-03-22T02:29:05.643Z,98718.16
2019-03-22T02:30:12.151Z,98718.94
2019-03-22T02:31:15.843Z,98713.33
2019-03-22T02:32:19.466Z,98719.14
2019-03-22T02:33:23.112Z,98723.39
2019-03-22T02:34:26.757Z,98724.91
2019-03-22T02:35:30.387Z,98721.38
2019-03-22T02:36:34.045Z,98727.27
2019-03-22T02:37:37.678Z,98726.00
2019-03-22T02:38:41.305Z,98719.12
2019-03-22T02:39:45.517Z,98731.38
2019-03-22T02:40:49.121Z,98729.77
2019-03-22T02:41:53.117Z,98723.94
2019-03-22T02:42:57.254Z,98730.30
2019-03-22T02:44:00.888Z,98724.11
2019-03-22T02:45:10.204Z,98726.74
2019-03-22T02:46:13.817Z,98729.90
2019-03-22T02:47:17.425Z,98731.72
2019-03-22T02:48:21.058Z,98725.91
2019-03-22T02:49:24.690Z,98727.80
2019-03-22T02:50:28.329Z,98729.41
2019-03-22T02:51:31.877Z,98733.16
2019-03-22T02:52:35.546Z,98727.58
2019-03-22T02:53:39.191Z,98728.41
2019-03-22T02:54:42.824Z,98735.33
2019-03-22T02:55:46.479Z,98732.62
2019-03-22T02:56:50.185Z,98729.38
2019-03-22T02:57:53.878Z,98730.36
2019-03-22T02:58:59.378Z,98733.23
2019-03-22T03:00:02.971Z,98732.49
2019-03-22T03:01:06.670Z,98727.45
2019-03-22T03:02:10.390Z,98728.81
2019-03-22T03:03:14.049Z,98731.51
2019-03-22T03:04:17.676Z,98729.69
2019-03-22T03:05:21.312Z,98737.36
2019-03-22T03:06:24.952Z,98738.41
2019-03-22T03:07:28.588Z,98737.30
2019-03-22T03:08:32.259Z,98737.82
2019-03-22T03:09:35.895Z,98742.27
2019-03-22T03:10:39.542Z,98733.36
2019-03-22T03:11:43.175Z,98735.86
2019-03-22T03:12:47.017Z,98735.13
2019-03-22T03:13:50.616Z,98742.59
2019-03-22T03:14:54.254Z,98737.54
2019-03-22T03:15:58.276Z,98736.52
2019-03-22T03:17:01.897Z,98733.55
2019-03-22T03:18:05.525Z,98737.22
2019-03-22T03:19:09.174Z,98739.05
2019-03-22T03:20:15.200Z,98743.04
2019-03-22T03:21:18.827Z,98734.73
2019-03-22T03:22:22.471Z,98735.33
2019-03-22T03:23:26.382Z,98732.70
2019-03-22T03:24:29.973Z,98739.96
2019-03-22T03:25:33.610Z,98738.34
2019-03-22T03:26:37.236Z,98733.47
2019-03-22T03:27:40.885Z,98736.80
2019-03-22T03:28:44.514Z,98734.41
2019-03-22T03:29:48.181Z,98734.09
2019-03-22T03:30:52.112Z,98735.42
2019-03-22T03:31:56.190Z,98734.66
2019-03-22T03:32:59.864Z,98736.55
2019-03-22T03:34:03.897Z,98735.61
2019-03-22T03:35:08.185Z,98734.04
2019-03-22T03:36:11.839Z,98734.04
2019-03-22T03:37:15.481Z,98740.73
2019-03-22T03:38:19.500Z,98742.91
2019-03-22T03:39:23.140Z,98739.92
2019-03-22T03:40:26.842Z,98744.89
2019-03-22T03:41:30.510Z,98742.40
2019-03-22T03:42:34.151Z,98744.50
2019-03-22T03:43:37.792Z,98744.41
2019-03-22T03:44:41.424Z,98748.64
2019-03-22T03:45:45.064Z,98747.88
2019-03-22T03:46:48.729Z,98742.84
2019-03-22T03:47:52.368Z,98740.98
2019-03-22T03:48:55.995Z,98743.08
2019-03-22T03:49:59.636Z,98736.44
2019-03-22T03:51:03.270Z,98737.84
2019-03-22T03:52:06.942Z,98742.84
2019-03-22T03:53:10.574Z,98741.27
2019-03-22T03:54:14.220Z,98740.66
2019-03-22T03:55:17.836Z,98741.33
2019-03-22T03:56:21.471Z,98739.57
2019-03-22T03:57:25.139Z,98738.05
2019-03-22T03:58:28.782Z,98744.22
2019-03-22T03:59:32.419Z,98743.45
2019-03-22T04:00:36.042Z,98739.78
2019-03-22T04:01:39.688Z,98746.78
2019-03-22T04:02:43.371Z,98748.50
2019-03-22T04:03:46.993Z,98737.52
2019-03-22T04:04:50.627Z,98745.51
2019-03-22T04:05:54.283Z,98743.41
2019-03-22T04:06:57.930Z,98742.77
2019-03-22T04:08:01.656Z,98750.17
2019-03-22T04:09:07.124Z,98748.36
2019-03-22T04:10:10.763Z,98751.83
2019-03-22T04:11:14.407Z,98749.66
2019-03-22T04:12:18.041Z,98748.92
2019-03-22T04:13:21.646Z,98745.55
2019-03-22T04:14:25.287Z,98743.16
2019-03-22T04:15:28.905Z,98747.27
2019-03-22T04:16:32.606Z,98742.91
2019-03-22T04:17:36.240Z,98746.31
2019-03-22T04:18:39.906Z,98745.03
2019-03-22T04:19:43.477Z,98746.98
2019-03-22T04:20:47.115Z,98752.08
2019-03-22T04:21:50.765Z,98749.70
2019-03-22T04:22:54.724Z,98752.16
2019-03-22T04:23:58.406Z,98749.83
2019-03-22T04:25:02.124Z,98749.66
2019-03-22T04:26:06.101Z,98748.97
2019-03-22T04:27:09.735Z,98754.34
2019-03-22T04:28:13.369Z,98747.76
2019-03-22T04:29:17.021Z,98745.27
2019-03-22T04:30:20.652Z,98753.59
2019-03-22T04:31:25.141Z,98749.77
2019-03-22T04:32:28.712Z,98752.25
2019-03-22T04:33:32.342Z,98755.77
2019-03-22T04:34:36.401Z,98747.64
2019-03-22T04:35:40.040Z,98749.17
2019-03-22T04:36:43.680Z,98754.73
2019-03-22T04:37:47.315Z,98753.91
2019-03-22T04:38:50.942Z,98754.61
2019-03-22T04:39:54.611Z,98752.38
2019-03-22T04:40:58.249Z,98755.34
2019-03-22T04:42:01.880Z,98758.66
2019-03-22T04:43:05.513Z,98758.48
2019-03-22T04:44:09.081Z,98753.79
2019-03-22T04:45:13.095Z,98756.44
2019-03-22T04:46:17.420Z,98752.41
2019-03-22T04:47:22.057Z,98754.55
2019-03-22T04:48:28.346Z,98758.59
2019-03-22T04:49:34.516Z,98760.53
2019-03-22T04:50:41.152Z,98763.19
2019-03-22T04:51:45.683Z,98765.62
2019-03-22T04:52:49.936Z,98765.13
2019-03-22T04:53:56.564Z,98765.90
2019-03-22T04:55:01.895Z,98770.45
2019-03-22T04:56:08.488Z,98775.02
2019-03-22T04:57:14.027Z,98767.27
2019-03-22T04:58:19.454Z,98769.70
2019-03-22T04:59:24.177Z,98776.50
2019-03-22T05:00:29.256Z,98773.27
2019-03-22T05:01:34.233Z,98780.33
2019-03-22T05:02:39.360Z,98780.61
2019-03-22T05:03:43.783Z,98779.28
2019-03-22T05:04:49.820Z,98785.14
2019-03-22T05:05:56.237Z,98780.14
2019-03-22T05:07:00.595Z,98783.05
2019-03-22T05:08:05.335Z,98785.61
2019-03-22T05:09:12.020Z,98777.28
2019-03-22T05:10:16.734Z,98779.61
2019-03-22T05:11:22.138Z,98781.69
2019-03-22T05:12:26.706Z,98781.16
2019-03-22T05:13:32.147Z,98783.48
2019-03-22T05:14:37.985Z,98787.74
2019-03-22T05:15:43.117Z,98788.09
2019-03-22T05:16:49.099Z,98788.09
2019-03-22T05:17:53.405Z,98793.07
2019-03-22T05:18:59.858Z,98793.06
2019-03-22T05:20:04.486Z,98795.03
2019-03-22T05:21:09.939Z,98792.70
2019-03-22T05:22:15.473Z,98791.15
2019-03-22T05:23:22.561Z,98794.34
2019-03-22T05:24:28.205Z,98788.20
2019-03-22T05:25:32.831Z,98797.42
2019-03-22T05:26:39.174Z,98796.03
2019-03-22T05:27:45.004Z,98790.05
2019-03-22T05:28:49.078Z,98792.70
2019-03-22T05:29:55.114Z,98795.67
2019-03-22T05:31:10.681Z,98797.81
2019-03-22T05:32:15.518Z,98796.48
2019-03-22T05:33:19.151Z,98792.77
2019-03-22T05:34:22.811Z,98796.20
2019-03-22T05:35:26.451Z,98797.23
2019-03-22T05:36:30.090Z,98797.57
2019-03-22T05:37:33.797Z,98798.67
2019-03-22T05:38:37.436Z,98797.85
2019-03-22T05:39:41.102Z,98800.62
2019-03-22T05:40:44.751Z,98797.75
2019-03-22T05:41:48.381Z,98801.97
2019-03-22T05:42:52.015Z,98803.00
2019-03-22T05:43:55.646Z,98800.69
2019-03-22T05:44:59.387Z,98803.51
2019-03-22T05:46:03.370Z,98804.91
2019-03-22T05:47:09.734Z,98802.81
2019-03-22T05:48:13.371Z,98800.16
2019-03-22T05:49:17.006Z,98804.33
2019-03-22T05:50:22.945Z,98803.92
2019-03-22T05:51:26.577Z,98808.44
2019-03-22T05:52:30.211Z,98805.84
2019-03-22T05:53:33.923Z,98814.91
2019-03-22T05:54:37.559Z,98808.66
2019-03-22T05:55:41.240Z,98808.38
2019-03-22T05:56:44.883Z,98808.88
2019-03-22T05:57:48.529Z,98811.91
2019-03-22T05:58:52.161Z,98812.47
2019-03-22T05:59:55.794Z,98809.04
2019-03-22T06:00:59.458Z,98810.21
2019-03-22T06:02:03.115Z,98806.77
2019-03-22T06:03:07.812Z,98808.74
2019-03-22T06:04:12.918Z,98810.86
2019-03-22T06:05:16.486Z,98804.67
2019-03-22T06:06:21.794Z,98810.47
2019-03-22T06:07:25.433Z,98808.62
2019-03-22T06:08:29.066Z,98809.65
2019-03-22T06:09:32.693Z,98807.22
2019-03-22T06:10:36.327Z,98807.69
2019-03-22T06:11:39.993Z,98802.26
2019-03-22T06:12:43.931Z,98806.06
2019-03-22T06:13:47.569Z,98804.22
2019-03-22T06:14:51.208Z,98803.13
2019-03-22T06:15:54.840Z,98806.59
2019-03-22T06:16:58.630Z,98807.92
2019-03-22T06:18:02.191Z,98806.48
2019-03-22T06:19:06.153Z,98800.98
2019-03-22T06:20:10.767Z,98801.22
2019-03-22T06:21:15.735Z,98802.42
2019-03-22T06:22:19.364Z,98802.77
2019-03-22T06:23:22.993Z,98799.39
2019-03-22T06:24:26.637Z,98800.83
2019-03-22T06:25:30.302Z,98800.45
2019-03-22T06:26:33.932Z,98800.28
2019-03-22T06:27:37.564Z,98801.89
2019-03-22T06:28:41.222Z,98800.84
2019-03-22T06:29:54.192Z,98796.50
2019-03-22T06:30:50.961Z,98799.15
2019-03-22T06:31:54.757Z,98797.89
2019-03-22T06:32:58.421Z,98795.84
2019-03-22T06:34:02.132Z,98791.36
2019-03-22T06:35:08.700Z,98794.39
2019-03-22T06:36:12.390Z,98793.16
2019-03-22T06:37:16.030Z,98794.56
2019-03-22T06:38:19.653Z,98792.45
2019-03-22T06:39:23.293Z,98793.06
2019-03-22T06:40:26.931Z,98790.45
2019-03-22T06:41:30.600Z,98792.67
2019-03-22T06:42:34.234Z,98789.55
2019-03-22T06:43:37.881Z,98783.23
2019-03-22T06:44:41.585Z,98783.00
2019-03-22T06:45:45.225Z,98783.55
2019-03-22T06:46:49.097Z,98784.88
2019-03-22T06:47:55.371Z,98786.22
2019-03-22T06:49:01.266Z,98781.71
2019-03-22T06:50:06.904Z,98782.78
2019-03-22T06:51:10.548Z,98783.31
2019-03-22T06:52:14.187Z,98780.13
2019-03-22T06:53:17.820Z,98778.52
2019-03-22T06:54:31.066Z,98776.91
2019-03-22T06:55:27.814Z,98772.39
2019-03-22T06:56:31.454Z,98773.72
2019-03-22T06:57:35.187Z,98771.05
2019-03-22T06:58:38.882Z,98768.63
2019-03-22T06:59:42.600Z,98771.02
2019-03-22T07:00:46.160Z,98770.77
2019-03-22T07:01:49.806Z,98767.30
2019-03-22T07:02:53.470Z,98773.95
2019-03-22T07:03:57.134Z,98770.72
2019-03-22T07:05:00.699Z,98766.42
2019-03-22T07:06:04.275Z,98766.66
2019-03-22T07:07:07.899Z,98768.00
2019-03-22T07:08:11.575Z,98770.39
2019-03-22T07:09:15.212Z,98766.90
2019-03-22T07:10:18.842Z,98763.65
2019-03-22T07:11:22.482Z,98758.80
2019-03-22T07:12:26.188Z,98757.95
2019-03-22T07:13:29.847Z,98763.20
2019-03-22T07:14:33.489Z,98760.97
2019-03-22T07:15:38.929Z,98762.84
2019-03-22T07:16:42.535Z,98760.38
2019-03-22T07:17:46.176Z,98751.61
2019-03-22T07:18:49.838Z,98751.22
2019-03-22T07:19:53.504Z,98749.25
2019-03-22T07:20:57.212Z,98745.89
2019-03-22T07:22:00.850Z,98746.09
2019-03-22T07:23:04.561Z,98746.09
2019-03-22T07:24:09.187Z,98746.04
2019-03-22T07:25:17.687Z,98746.95
2019-03-22T07:26:21.693Z,98746.95
2019-03-22T07:27:25.310Z,98739.65
2019-03-22T07:28:28.936Z,98739.65
2019-03-22T07:29:32.587Z,98731.58
2019-03-22T07:30:36.243Z,98728.30
2019-03-22T07:31:39.886Z,98728.30
2019-03-22T07:32:43.527Z,98733.39
2019-03-22T07:33:47.180Z,98726.27
2019-03-22T07:34:50.865Z,98733.45
2019-03-22T07:35:54.494Z,98718.91
2019-03-22T07:36:58.135Z,98723.96
2019-03-22T07:38:01.862Z,98726.56
2019-03-22T07:39:07.947Z,98725.50
2019-03-22T07:40:12.599Z,98721.53
2019-03-22T07:41:16.236Z,98718.84
2019-03-22T07:42:19.899Z,98719.03
2019-03-22T07:43:23.550Z,98724.55
2019-03-22T07:44:27.185Z,98715.48
2019-03-22T07:45:30.859Z,98713.52
2019-03-22T07:46:34.536Z,98712.42
2019-03-22T07:47:38.591Z,98714.58
2019-03-22T07:48:42.298Z,98712.14
2019-03-22T07:49:45.939Z,98705.22
2019-03-22T07:50:49.606Z,98696.53
2019-03-22T07:51:53.319Z,98696.53
2019-03-22T07:52:57.039Z,98701.32
2019-03-22T07:54:03.497Z,98702.81
2019-03-22T07:55:06.812Z,98696.29
2019-03-22T07:56:10.487Z,98696.29
2019-03-22T07:57:14.120Z,98700.59
2019-03-22T07:58:17.821Z,98693.74
2019-03-22T07:59:21.468Z,98693.74
2019-03-22T08:00:30.646Z,98691.55
2019-03-22T08:01:37.712Z,98681.77
2019-03-22T08:02:41.361Z,98681.77
2019-03-22T08:03:46.385Z,98685.06
2019-03-22T08:04:50.025Z,98685.22
2019-03-22T08:05:53.673Z,98685.33
2019-03-22T08:06:57.441Z,98686.55
2019-03-22T08:08:02.309Z,98687.45
2019-03-22T08:09:09.197Z,98684.17
2019-03-22T08:10:12.945Z,98685.66
2019-03-22T08:11:19.023Z,98679.61
2019-03-22T08:12:22.699Z,98684.59
2019-03-22T08:13:26.406Z,98684.05
2019-03-22T08:14:30.077Z,98674.08
2019-03-22T08:15:34.082Z,98674.70
2019-03-22T08:16:37.720Z,98673.47
2019-03-22T08:17:41.406Z,98668.03
2019-03-22T08:18:45.036Z,98667.41
2019-03-22T08:19:49.089Z,98666.60
2019-03-22T08:20:52.922Z,98661.44
2019-03-22T08:21:56.560Z,98667.37
2019-03-22T08:23:00.683Z,98660.05
2019-03-22T08:24:04.349Z,98664.31
2019-03-22T08:25:08.079Z,98654.46
2019-03-22T08:26:11.716Z,98650.75
2019-03-22T08:27:15.352Z,98654.16
2019-03-22T08:28:19.095Z,98640.59
2019-03-22T08:29:22.750Z,98645.73
2019-03-22T08:30:26.476Z,98644.06
2019-03-22T08:31:30.128Z,98641.80
2019-03-22T08:32:33.707Z,98638.17
2019-03-22T08:33:37.382Z,98642.95
2019-03-22T08:34:41.024Z,98633.80
2019-03-22T08:35:44.662Z,98636.91
2019-03-22T08:36:48.306Z,98636.08
2019-03-22T08:37:53.015Z,98633.03
2019-03-22T08:38:56.908Z,98631.19
2019-03-22T08:40:00.696Z,98629.39
2019-03-22T08:41:04.421Z,98632.56
2019-03-22T08:42:08.063Z,98633.68
2019-03-22T08:43:11.714Z,98627.13
2019-03-22T08:44:15.381Z,98624.47
2019-03-22T08:45:19.055Z,98626.30
2019-03-22T08:46:22.598Z,98625.81
2019-03-22T08:47:33.979Z,98622.03
2019-03-22T08:48:31.612Z,98617.78
2019-03-22T08:49:35.516Z,98627.61
2019-03-22T08:50:39.304Z,98625.77
2019-03-22T08:51:43.347Z,98621.90
2019-03-22T08:52:47.054Z,98620.30
2019-03-22T08:53:55.619Z,98612.69
2019-03-22T08:54:56.099Z,98607.54
2019-03-22T08:55:59.716Z,98611.95
2019-03-22T08:57:03.363Z,98597.83
2019-03-22T08:58:07.035Z,98602.33
2019-03-22T08:59:13.378Z,98598.11
2019-03-22T09:00:16.932Z,98595.14
2019-03-22T09:01:20.639Z,98594.70
2019-03-22T09:02:24.280Z,98595.56
2019-03-22T09:03:27.921Z,98595.89
2019-03-22T09:04:31.574Z,98597.75
2019-03-22T09:05:35.247Z,98591.16
2019-03-22T09:06:38.914Z,98592.16
2019-03-22T09:07:42.523Z,98588.91
2019-03-22T09:08:47.868Z,98584.89
2019-03-22T09:09:51.691Z,98583.92
2019-03-22T09:10:55.392Z,98570.25
2019-03-22T09:11:59.004Z,98567.41
2019-03-22T09:13:02.697Z,98573.44
2019-03-22T09:14:06.354Z,98564.13
2019-03-22T09:15:11.514Z,98570.56
2019-03-22T09:16:15.201Z,98571.60
2019-03-22T09:17:18.845Z,98566.17
2019-03-22T09:18:22.877Z,98558.50
2019-03-22T09:19:26.498Z,98560.92
2019-03-22T09:20:30.159Z,98557.81
2019-03-22T09:21:33.820Z,98554.47
2019-03-22T09:22:37.483Z,98554.48
2019-03-22T09:23:41.265Z,98552.31
2019-03-22T09:24:44.861Z,98546.81
2019-03-22T09:25:48.467Z,98544.08
2019-03-22T09:26:52.259Z,98545.78
2019-03-22T09:27:55.879Z,98537.59
2019-03-22T09:28:59.508Z,98539.16
2019-03-22T09:30:03.143Z,98531.20
2019-03-22T09:31:10.769Z,98531.83
2019-03-22T09:32:15.031Z,98529.70
2019-03-22T09:33:18.658Z,98535.95
2019-03-22T09:34:33.094Z,98532.77
2019-03-22T09:35:27.675Z,98532.39
2019-03-22T09:36:31.255Z,98529.27
2019-03-22T09:37:34.881Z,98526.76
2019-03-22T09:38:38.593Z,98526.91
2019-03-22T09:39:42.242Z,98522.66
2019-03-22T09:40:45.880Z,98522.23
2019-03-22T09:41:49.521Z,98516.29
2019-03-22T09:42:53.301Z,98513.56
2019-03-22T09:43:57.203Z,98514.09
2019-03-22T09:45:00.869Z,98512.86
2019-03-22T09:46:04.468Z,98509.13
2019-03-22T09:47:08.481Z,98512.45
2019-03-22T09:48:12.265Z,98513.26
2019-03-22T09:49:16.016Z,98505.80
2019-03-22T09:50:20.126Z,98507.64
2019-03-22T09:51:23.749Z,98506.91
2019-03-22T09:52:27.463Z,98506.01
2019-03-22T09:53:31.474Z,98502.03
2019-03-22T09:54:35.102Z,98499.22
2019-03-22T09:55:38.756Z,98501.59
2019-03-22T09:56:47.324Z,98495.84
2019-03-22T09:57:49.424Z,98495.52
2019-03-22T09:58:53.360Z,98496.19
2019-03-22T09:59:56.949Z,98496.37
2019-03-22T10:01:00.653Z,98490.85
2019-03-22T10:02:04.295Z,98489.05
2019-03-22T10:03:08.016Z,98486.41
2019-03-22T10:04:11.768Z,98487.43
2019-03-22T10:05:15.412Z,98486.95
2019-03-22T10:06:19.401Z,98491.03
2019-03-22T10:07:22.997Z,98483.63
2019-03-22T10:08:26.646Z,98472.95
2019-03-22T10:09:30.311Z,98474.76
2019-03-22T10:10:34.039Z,98476.56
2019-03-22T10:11:37.611Z,98471.81
2019-03-22T10:12:41.241Z,98472.38
2019-03-22T10:13:48.129Z,98463.40
2019-03-22T10:14:50.561Z,98468.33
2019-03-22T10:15:54.163Z,98459.88
2019-03-22T10:16:58.148Z,98461.05
2019-03-22T10:18:02.212Z,98461.34
2019-03-22T10:19:05.867Z,98453.55
2019-03-22T10:20:09.730Z,98447.68
2019-03-22T10:21:22.208Z,98448.14
2019-03-22T10:22:18.830Z,98447.48
2019-03-22T10:23:22.633Z,98443.77
2019-03-22T10:24:26.468Z,98447.27
2019-03-22T10:25:30.199Z,98439.59
2019-03-22T10:26:33.912Z,98441.34
2019-03-22T10:27:37.631Z,98432.70
2019-03-22T10:28:41.330Z,98434.14
2019-03-22T10:29:44.970Z,98433.11
2019-03-22T10:30:48.671Z,98429.95
2019-03-22T10:31:52.377Z,98428.55
2019-03-22T10:32:55.990Z,98429.85
2019-03-22T10:33:59.685Z,98421.67
2019-03-22T10:35:03.590Z,98418.92
2019-03-22T10:36:07.473Z,98418.98
2019-03-22T10:37:11.184Z,98413.12
2019-03-22T10:38:16.532Z,98414.16
2019-03-22T10:39:20.206Z,98410.58
2019-03-22T10:40:24.203Z,98409.27
2019-03-22T10:41:27.916Z,98410.00
2019-03-22T10:42:31.633Z,98409.00
2019-03-22T10:43:35.306Z,98400.56
2019-03-22T10:44:39.549Z,98397.56
2019-03-22T10:45:43.260Z,98398.78
2019-03-22T10:46:46.970Z,98394.77
2019-03-22T10:47:50.623Z,98390.92
2019-03-22T10:48:54.264Z,98391.41
2019-03-22T10:49:57.922Z,98389.95
2019-03-22T10:51:01.583Z,98389.50
2019-03-22T10:52:05.218Z,98387.03
2019-03-22T10:53:09.163Z,98387.34
2019-03-22T10:54:12.992Z,98382.09
2019-03-22T10:55:29.200Z,98375.31
2019-03-22T10:56:24.814Z,98376.09
2019-03-22T10:57:27.380Z,98375.75
2019-03-22T10:58:31.027Z,98375.08
2019-03-22T10:59:34.766Z,98364.69
2019-03-22T11:00:38.585Z,98367.78
2019-03-22T11:01:52.390Z,98360.22
2019-03-22T11:02:47.601Z,98360.32
2019-03-22T11:03:51.308Z,98362.61
2019-03-22T11:04:55.073Z,98361.63
2019-03-22T11:05:58.750Z,98364.46
2019-03-22T11:07:02.389Z,98363.33
2019-03-22T11:08:06.018Z,98356.69
2019-03-22T11:09:09.756Z,98349.63
2019-03-22T11:10:14.223Z,98356.23
2019-03-22T11:11:17.876Z,98346.00
2019-03-22T11:12:21.504Z,98343.04
2019-03-22T11:13:25.159Z,98337.95
2019-03-22T11:14:28.805Z,98338.27
2019-03-22T11:15:32.441Z,98335.34
2019-03-22T11:16:36.201Z,98336.02
2019-03-22T11:17:39.904Z,98333.89
2019-03-22T11:18:43.538Z,98324.64
2019-03-22T11:19:47.182Z,98320.80
2019-03-22T11:20:52.374Z,98318.48
2019-03-22T11:21:56.012Z,98313.71
2019-03-22T11:22:59.662Z,98314.06
2019-03-22T11:24:03.299Z,98318.13
2019-03-22T11:25:08.037Z,98308.41
2019-03-22T11:26:11.611Z,98301.02
2019-03-22T11:27:15.289Z,98309.55
2019-03-22T11:28:18.925Z,98304.04
2019-03-22T11:29:22.558Z,98293.22
2019-03-22T11:30:26.193Z,98294.89
2019-03-22T11:31:39.205Z,98298.31
2019-03-22T11:32:35.323Z,98294.95
2019-03-22T11:33:38.960Z,98286.37
2019-03-22T11:34:42.893Z,98276.70
2019-03-22T11:35:46.543Z,98276.63
2019-03-22T11:36:50.189Z,98274.74
2019-03-22T11:37:53.871Z,98279.46
2019-03-22T11:38:57.607Z,98272.76
2019-03-22T11:40:01.563Z,98274.88
2019-03-22T11:41:05.202Z,98276.67
2019-03-22T11:42:08.838Z,98259.66
2019-03-22T11:43:12.509Z,98261.66
2019-03-22T11:44:16.155Z,98251.08
2019-03-22T11:45:24.627Z,98254.51
2019-03-22T11:46:28.442Z,98256.58
2019-03-22T11:47:32.084Z,98252.77
2019-03-22T11:48:35.799Z,98250.77
2019-03-22T11:49:39.448Z,98245.93
2019-03-22T11:50:43.292Z,98249.80
2019-03-22T11:51:47.007Z,98243.32
2019-03-22T11:52:50.647Z,98245.00
2019-03-22T11:53:54.293Z,98242.92
2019-03-22T11:54:57.951Z,98239.11
2019-03-22T11:56:01.581Z,98232.28
2019-03-22T11:57:05.314Z,98238.80
2019-03-22T11:58:09.295Z,98231.66
2019-03-22T11:59:12.966Z,98228.71
2019-03-22T12:00:24.473Z,98231.05
2019-03-22T12:01:28.115Z,98228.73
2019-03-22T12:02:31.753Z,98228.42
2019-03-22T12:03:35.385Z,98228.64
2019-03-22T12:04:39.066Z,98222.29
2019-03-22T12:05:42.768Z,98217.02
2019-03-22T12:06:46.403Z,98222.30
2019-03-22T12:07:50.035Z,98223.11
2019-03-22T12:08:54.010Z,98219.27
2019-03-22T12:09:57.688Z,98220.25
2019-03-22T12:11:01.324Z,98218.92
2019-03-22T12:12:04.964Z,98211.89
2019-03-22T12:13:08.754Z,98214.43
2019-03-22T12:14:12.749Z,98208.86
2019-03-22T12:15:23.395Z,98209.57
2019-03-22T12:16:27.038Z,98211.04
2019-03-22T12:17:30.682Z,98208.35
2019-03-22T12:18:34.317Z,98204.42
2019-03-22T12:19:37.964Z,98202.47
2019-03-22T12:20:41.636Z,98200.30
2019-03-22T12:21:45.290Z,98202.64
2019-03-22T12:22:48.919Z,98195.08
2019-03-22T12:23:52.559Z,98189.33
2019-03-22T12:24:56.193Z,98193.03
2019-03-22T12:25:59.932Z,98192.77
2019-03-22T12:27:03.631Z,98185.55
2019-03-22T12:28:07.379Z,98180.20
2019-03-22T12:29:11.003Z,98181.52
2019-03-22T12:30:16.885Z,98185.78
2019-03-22T12:31:20.546Z,98188.72
2019-03-22T12:32:31.953Z,98182.55